createdAt,value
2023-05-19T06:41:59.165Z,13.29
2023-05-19T06:45:39.092Z,13.36
2023-05-19T06:48:54.307Z,13.40
2023-05-19T06:51:44.546Z,13.43
2023-05-19T06:54:23.534Z,13.48
2023-05-19T06:57:23.149Z,13.53
2023-05-19T07:00:33.856Z,13.54
2023-05-19T07:04:13.182Z,13.58
2023-05-19T07:08:50.864Z,13.61
2023-05-19T07:18:31.884Z,13.69
2023-05-19T07:21:29.815Z,13.71
2023-05-19T07:28:46.271Z,13.76
2023-05-19T07:32:08.930Z,13.81
2023-05-19T07:34:50.541Z,13.85
2023-05-19T07:37:59.623Z,13.87
2023-05-19T07:41:27.105Z,13.87
2023-05-19T07:44:45.835Z,13.86
2023-05-19T07:47:37.780Z,13.89
2023-05-19T07:50:55.345Z,13.93
2023-05-19T07:53:54.170Z,13.96
2023-05-19T07:56:43.029Z,13.99
2023-05-19T07:59:13.610Z,14.01
2023-05-19T08:01:47.405Z,14.03
2023-05-19T08:04:36.292Z,14.06
2023-05-19T08:07:27.330Z,14.08
2023-05-19T08:10:01.666Z,14.10
2023-05-19T08:12:41.906Z,14.12
2023-05-19T08:15:13.415Z,14.16
2023-05-19T08:18:10.706Z,14.21
2023-05-19T08:20:38.940Z,14.28
2023-05-19T08:23:27.244Z,14.34
2023-05-19T08:37:00.149Z,14.40
2023-05-19T08:39:49.952Z,14.11
2023-05-19T08:43:03.249Z,13.83
2023-05-19T08:46:08.477Z,13.64
2023-05-19T08:49:05.238Z,13.53
2023-05-19T08:52:21.379Z,13.50
2023-05-19T08:55:17.421Z,13.71
2023-05-19T08:57:51.344Z,13.89
2023-05-19T09:00:24.431Z,14.01
2023-05-19T09:03:17.725Z,14.12
2023-05-19T09:06:02.206Z,14.24
2023-05-19T09:08:47.573Z,14.31
2023-05-19T09:11:40.234Z,14.38
2023-05-19T09:14:10.093Z,14.44
2023-05-19T09:16:48.694Z,14.51
2023-05-19T09:19:48.725Z,14.58
2023-05-19T09:22:28.086Z,14.63
2023-05-19T09:24:59.511Z,14.66
2023-05-19T09:27:41.734Z,14.69
2023-05-19T09:30:33.283Z,14.73
2023-05-19T09:33:31.958Z,14.76
2023-05-19T09:36:14.530Z,14.79
2023-05-19T09:39:13.708Z,14.83
2023-05-19T09:42:17.482Z,14.77
2023-05-19T09:45:34.838Z,14.48
2023-05-19T09:48:50.758Z,14.22
2023-05-19T09:52:30.816Z,13.98
2023-05-19T09:56:03.992Z,13.85
2023-05-19T09:59:15.927Z,13.79
2023-05-19T10:01:52.794Z,13.74
2023-05-19T10:04:27.594Z,13.71
2023-05-19T10:07:16.215Z,13.67
2023-05-19T10:09:49.668Z,13.63
2023-05-19T10:13:09.566Z,13.59
2023-05-19T10:15:57.024Z,13.55
2023-05-19T10:18:50.866Z,13.50
2023-05-19T10:21:51.314Z,13.46
2023-05-19T10:24:26.998Z,13.41
2023-05-19T10:27:12.599Z,13.36
2023-05-19T10:29:51.592Z,13.33
2023-05-19T10:32:32.671Z,13.28
2023-05-19T10:35:47.499Z,13.25
2023-05-19T10:38:29.605Z,13.24
2023-05-19T10:41:57.921Z,13.24
2023-05-19T10:45:26.764Z,13.24
2023-05-19T10:48:26.034Z,13.23
2023-05-19T10:51:32.528Z,13.22
2023-05-19T10:54:41.469Z,13.22
2023-05-19T10:57:17.133Z,13.24
2023-05-19T11:00:33.284Z,13.24
2023-05-19T11:03:59.841Z,13.25
2023-05-19T11:06:32.672Z,13.24
2023-05-19T11:09:37.894Z,13.20
2023-05-19T11:12:12.261Z,13.17
2023-05-19T11:14:45.262Z,13.17
2023-05-19T11:17:24.664Z,13.17
